sensor_id;sensor_type;location;lat;lon;timestamp;temperature;humidity
20174;DHT22;10246;50.620;7.232;2024-03-06T00:02:05;8.40;29.60
20174;DHT22;10246;50.620;7.232;2024-03-06T00:04:32;8.40;29.80
20174;DHT22;10246;50.620;7.232;2024-03-06T00:06:58;8.40;29.90
20174;DHT22;10246;50.620;7.232;2024-03-06T00:09:27;8.50;29.70
20174;DHT22;10246;50.620;7.232;2024-03-06T00:11:54;8.40;29.80
20174;DHT22;10246;50.620;7.232;2024-03-06T00:14:21;8.40;29.80
20174;DHT22;10246;50.620;7.232;2024-03-06T00:16:48;8.40;29.50
20174;DHT22;10246;50.620;7.232;2024-03-06T00:19:15;8.40;29.60
20174;DHT22;10246;50.620;7.232;2024-03-06T00:21:42;8.40;29.40
20174;DHT22;10246;50.620;7.232;2024-03-06T00:24:11;8.40;29.50
20174;DHT22;10246;50.620;7.232;2024-03-06T00:26:41;8.40;29.70
20174;DHT22;10246;50.620;7.232;2024-03-06T00:29:08;8.30;30.00
20174;DHT22;10246;50.620;7.232;2024-03-06T00:31:35;8.30;29.60
20174;DHT22;10246;50.620;7.232;2024-03-06T00:34:02;8.30;29.70
20174;DHT22;10246;50.620;7.232;2024-03-06T00:36:28;8.30;29.60
20174;DHT22;10246;50.620;7.232;2024-03-06T00:38:55;8.30;29.70
20174;DHT22;10246;50.620;7.232;2024-03-06T00:41:22;8.30;29.30
20174;DHT22;10246;50.620;7.232;2024-03-06T00:43:50;8.20;29.10
20174;DHT22;10246;50.620;7.232;2024-03-06T00:46:17;8.20;29.00
20174;DHT22;10246;50.620;7.232;2024-03-06T00:48:47;8.10;28.90
20174;DHT22;10246;50.620;7.232;2024-03-06T00:51:14;8.10;29.50
20174;DHT22;10246;50.620;7.232;2024-03-06T00:53:41;8.00;28.80
20174;DHT22;10246;50.620;7.232;2024-03-06T00:56:07;8.00;28.50
20174;DHT22;10246;50.620;7.232;2024-03-06T00:58:34;7.90;28.40
20174;DHT22;10246;50.620;7.232;2024-03-06T01:01:03;7.90;28.30
20174;DHT22;10246;50.620;7.232;2024-03-06T01:03:30;7.90;27.90
20174;DHT22;10246;50.620;7.232;2024-03-06T01:05:57;7.80;27.60
20174;DHT22;10246;50.620;7.232;2024-03-06T01:08:23;7.80;27.40
20174;DHT22;10246;50.620;7.232;2024-03-06T01:10:51;7.80;27.00
20174;DHT22;10246;50.620;7.232;2024-03-06T01:13:17;7.70;26.50
20174;DHT22;10246;50.620;7.232;2024-03-06T01:15:44;7.70;26.00
20174;DHT22;10246;50.620;7.232;2024-03-06T01:18:13;7.70;26.10
20174;DHT22;10246;50.620;7.232;2024-03-06T01:20:39;7.60;25.00
20174;DHT22;10246;50.620;7.232;2024-03-06T01:23:06;7.50;25.60
20174;DHT22;10246;50.620;7.232;2024-03-06T01:25:33;7.40;26.00
20174;DHT22;10246;50.620;7.232;2024-03-06T01:28:00;7.40;26.50
20174;DHT22;10246;50.620;7.232;2024-03-06T01:30:26;7.40;25.90
20174;DHT22;10246;50.620;7.232;2024-03-06T01:32:53;7.20;24.50
20174;DHT22;10246;50.620;7.232;2024-03-06T01:35:21;7.20;24.70
20174;DHT22;10246;50.620;7.232;2024-03-06T01:37:49;7.20;24.60
20174;DHT22;10246;50.620;7.232;2024-03-06T01:40:16;7.20;24.70
20174;DHT22;10246;50.620;7.232;2024-03-06T01:42:42;7.20;24.60
20174;DHT22;10246;50.620;7.232;2024-03-06T01:45:10;7.10;24.50
20174;DHT22;10246;50.620;7.232;2024-03-06T01:47:37;7.00;24.40
20174;DHT22;10246;50.620;7.232;2024-03-06T01:50:05;7.00;24.40
20174;DHT22;10246;50.620;7.232;2024-03-06T01:52:35;7.00;24.10
20174;DHT22;10246;50.620;7.232;2024-03-06T01:55:03;6.90;23.40
20174;DHT22;10246;50.620;7.232;2024-03-06T01:57:31;6.80;23.70
20174;DHT22;10246;50.620;7.232;2024-03-06T01:59:58;6.80;24.20
20174;DHT22;10246;50.620;7.232;2024-03-06T02:02:25;6.80;24.20
20174;DHT22;10246;50.620;7.232;2024-03-06T02:04:53;6.80;24.20
20174;DHT22;10246;50.620;7.232;2024-03-06T02:07:20;6.80;25.00
20174;DHT22;10246;50.620;7.232;2024-03-06T02:09:48;6.90;24.90
20174;DHT22;10246;50.620;7.232;2024-03-06T02:12:15;6.80;24.30
20174;DHT22;10246;50.620;7.232;2024-03-06T02:14:43;6.80;24.20
20174;DHT22;10246;50.620;7.232;2024-03-06T02:17:10;6.80;24.20
20174;DHT22;10246;50.620;7.232;2024-03-06T02:19:38;6.70;24.20
20174;DHT22;10246;50.620;7.232;2024-03-06T02:22:06;6.60;23.80
20174;DHT22;10246;50.620;7.232;2024-03-06T02:24:33;6.60;23.50
20174;DHT22;10246;50.620;7.232;2024-03-06T02:27:00;6.50;23.20
20174;DHT22;10246;50.620;7.232;2024-03-06T02:29:27;6.50;23.30
20174;DHT22;10246;50.620;7.232;2024-03-06T02:31:53;6.40;23.40
20174;DHT22;10246;50.620;7.232;2024-03-06T02:34:20;6.30;23.60
20174;DHT22;10246;50.620;7.232;2024-03-06T02:36:47;6.20;23.10
20174;DHT22;10246;50.620;7.232;2024-03-06T02:39:15;6.20;23.90
20174;DHT22;10246;50.620;7.232;2024-03-06T02:41:41;6.10;22.80
20174;DHT22;10246;50.620;7.232;2024-03-06T02:44:08;6.00;23.20
20174;DHT22;10246;50.620;7.232;2024-03-06T02:46:35;6.00;23.20
20174;DHT22;10246;50.620;7.232;2024-03-06T02:49:02;6.00;23.80
20174;DHT22;10246;50.620;7.232;2024-03-06T02:51:28;6.00;23.80
20174;DHT22;10246;50.620;7.232;2024-03-06T02:53:55;5.90;23.70
20174;DHT22;10246;50.620;7.232;2024-03-06T02:56:23;6.00;24.50
20174;DHT22;10246;50.620;7.232;2024-03-06T02:58:50;5.90;24.30
20174;DHT22;10246;50.620;7.232;2024-03-06T03:01:16;5.90;24.40
20174;DHT22;10246;50.620;7.232;2024-03-06T03:03:43;5.80;24.30
20174;DHT22;10246;50.620;7.232;2024-03-06T03:06:12;5.90;24.90
20174;DHT22;10246;50.620;7.232;2024-03-06T03:08:39;6.00;25.60
20174;DHT22;10246;50.620;7.232;2024-03-06T03:11:06;6.00;26.30
20174;DHT22;10246;50.620;7.232;2024-03-06T03:13:34;6.00;26.70
20174;DHT22;10246;50.620;7.232;2024-03-06T03:16:01;5.90;26.50
20174;DHT22;10246;50.620;7.232;2024-03-06T03:18:29;5.90;26.90
20174;DHT22;10246;50.620;7.232;2024-03-06T03:20:55;5.90;27.40
20174;DHT22;10246;50.620;7.232;2024-03-06T03:23:22;6.00;28.00
20174;DHT22;10246;50.620;7.232;2024-03-06T03:25:49;6.00;28.30
20174;DHT22;10246;50.620;7.232;2024-03-06T03:28:16;6.10;28.40
20174;DHT22;10246;50.620;7.232;2024-03-06T03:30:44;6.10;28.40
20174;DHT22;10246;50.620;7.232;2024-03-06T03:33:11;6.10;28.40
20174;DHT22;10246;50.620;7.232;2024-03-06T03:35:37;6.10;28.70
20174;DHT22;10246;50.620;7.232;2024-03-06T03:38:04;6.10;28.80
20174;DHT22;10246;50.620;7.232;2024-03-06T03:40:31;6.10;29.20
20174;DHT22;10246;50.620;7.232;2024-03-06T03:42:58;6.10;29.40
20174;DHT22;10246;50.620;7.232;2024-03-06T03:45:31;6.10;29.70
20174;DHT22;10246;50.620;7.232;2024-03-06T03:48:00;6.00;29.90
20174;DHT22;10246;50.620;7.232;2024-03-06T03:50:28;6.00;30.30
20174;DHT22;10246;50.620;7.232;2024-03-06T03:52:54;6.00;30.60
20174;DHT22;10246;50.620;7.232;2024-03-06T03:55:23;6.10;31.10
20174;DHT22;10246;50.620;7.232;2024-03-06T03:57:50;6.20;31.70
20174;DHT22;10246;50.620;7.232;2024-03-06T04:00:18;6.20;31.60
20174;DHT22;10246;50.620;7.232;2024-03-06T04:02:45;6.20;31.40
20174;DHT22;10246;50.620;7.232;2024-03-06T04:05:13;6.20;31.10
20174;DHT22;10246;50.620;7.232;2024-03-06T04:07:40;6.30;31.80
20174;DHT22;10246;50.620;7.232;2024-03-06T04:10:07;6.20;31.70
20174;DHT22;10246;50.620;7.232;2024-03-06T04:12:36;6.20;32.10
20174;DHT22;10246;50.620;7.232;2024-03-06T04:15:04;6.20;32.40
20174;DHT22;10246;50.620;7.232;2024-03-06T04:17:31;6.30;32.90
20174;DHT22;10246;50.620;7.232;2024-03-06T04:19:58;6.30;32.60
20174;DHT22;10246;50.620;7.232;2024-03-06T04:22:26;6.20;32.30
20174;DHT22;10246;50.620;7.232;2024-03-06T04:24:54;6.20;31.40
20174;DHT22;10246;50.620;7.232;2024-03-06T04:27:23;6.20;30.90
20174;DHT22;10246;50.620;7.232;2024-03-06T04:29:50;6.20;30.80
20174;DHT22;10246;50.620;7.232;2024-03-06T04:32:18;6.10;29.70
20174;DHT22;10246;50.620;7.232;2024-03-06T04:34:44;6.10;29.10
20174;DHT22;10246;50.620;7.232;2024-03-06T04:37:12;6.00;28.50
20174;DHT22;10246;50.620;7.232;2024-03-06T04:39:40;6.00;28.20
20174;DHT22;10246;50.620;7.232;2024-03-06T04:42:07;6.00;27.80
20174;DHT22;10246;50.620;7.232;2024-03-06T04:44:34;5.90;27.00
20174;DHT22;10246;50.620;7.232;2024-03-06T04:47:01;5.80;26.80
20174;DHT22;10246;50.620;7.232;2024-03-06T04:49:28;5.80;27.80
20174;DHT22;10246;50.620;7.232;2024-03-06T04:51:54;5.70;28.60
20174;DHT22;10246;50.620;7.232;2024-03-06T04:54:21;5.70;28.50
20174;DHT22;10246;50.620;7.232;2024-03-06T04:56:49;5.80;29.20
20174;DHT22;10246;50.620;7.232;2024-03-06T04:59:16;5.70;29.10
20174;DHT22;10246;50.620;7.232;2024-03-06T05:01:42;5.70;28.80
20174;DHT22;10246;50.620;7.232;2024-03-06T05:04:09;5.80;29.00
20174;DHT22;10246;50.620;7.232;2024-03-06T05:06:37;5.80;29.10
20174;DHT22;10246;50.620;7.232;2024-03-06T05:09:04;5.80;29.40
20174;DHT22;10246;50.620;7.232;2024-03-06T05:11:31;5.80;29.50
20174;DHT22;10246;50.620;7.232;2024-03-06T05:14:00;5.80;29.60
20174;DHT22;10246;50.620;7.232;2024-03-06T05:16:26;5.80;30.30
20174;DHT22;10246;50.620;7.232;2024-03-06T05:18:53;5.80;30.80
20174;DHT22;10246;50.620;7.232;2024-03-06T05:21:21;5.80;31.50
20174;DHT22;10246;50.620;7.232;2024-03-06T05:23:48;5.80;31.40
20174;DHT22;10246;50.620;7.232;2024-03-06T05:26:15;5.80;31.50
20174;DHT22;10246;50.620;7.232;2024-03-06T05:28:42;5.70;31.70
20174;DHT22;10246;50.620;7.232;2024-03-06T05:31:18;5.70;31.50
20174;DHT22;10246;50.620;7.232;2024-03-06T05:33:47;5.70;31.80
20174;DHT22;10246;50.620;7.232;2024-03-06T05:36:13;5.60;31.40
20174;DHT22;10246;50.620;7.232;2024-03-06T05:38:40;5.70;32.00
20174;DHT22;10246;50.620;7.232;2024-03-06T05:41:08;5.70;32.30
20174;DHT22;10246;50.620;7.232;2024-03-06T05:43:35;5.60;32.40
20174;DHT22;10246;50.620;7.232;2024-03-06T05:46:02;5.60;31.90
20174;DHT22;10246;50.620;7.232;2024-03-06T05:48:31;5.60;32.40
20174;DHT22;10246;50.620;7.232;2024-03-06T05:50:59;5.60;32.90
20174;DHT22;10246;50.620;7.232;2024-03-06T05:53:25;5.50;31.50
20174;DHT22;10246;50.620;7.232;2024-03-06T05:55:52;5.50;32.10
20174;DHT22;10246;50.620;7.232;2024-03-06T05:58:20;5.50;31.60
20174;DHT22;10246;50.620;7.232;2024-03-06T06:00:46;5.40;31.30
20174;DHT22;10246;50.620;7.232;2024-03-06T06:03:13;5.40;31.90
20174;DHT22;10246;50.620;7.232;2024-03-06T06:05:41;5.40;32.20
20174;DHT22;10246;50.620;7.232;2024-03-06T06:08:08;5.40;32.70
20174;DHT22;10246;50.620;7.232;2024-03-06T06:10:35;5.40;33.20
20174;DHT22;10246;50.620;7.232;2024-03-06T06:13:02;5.40;33.40
20174;DHT22;10246;50.620;7.232;2024-03-06T06:15:30;5.30;33.80
20174;DHT22;10246;50.620;7.232;2024-03-06T06:17:57;5.40;34.80
20174;DHT22;10246;50.620;7.232;2024-03-06T06:20:24;5.40;35.00
20174;DHT22;10246;50.620;7.232;2024-03-06T06:22:52;5.50;35.60
20174;DHT22;10246;50.620;7.232;2024-03-06T06:25:19;5.50;35.40
20174;DHT22;10246;50.620;7.232;2024-03-06T06:27:46;5.50;34.90
20174;DHT22;10246;50.620;7.232;2024-03-06T06:30:15;5.50;35.20
20174;DHT22;10246;50.620;7.232;2024-03-06T06:32:42;5.40;35.00
20174;DHT22;10246;50.620;7.232;2024-03-06T06:35:09;5.40;35.60
20174;DHT22;10246;50.620;7.232;2024-03-06T06:37:37;5.40;36.40
20174;DHT22;10246;50.620;7.232;2024-03-06T06:40:06;5.40;36.70
20174;DHT22;10246;50.620;7.232;2024-03-06T06:42:34;5.40;37.60
20174;DHT22;10246;50.620;7.232;2024-03-06T06:45:01;5.50;37.70
20174;DHT22;10246;50.620;7.232;2024-03-06T06:47:28;5.40;37.70
20174;DHT22;10246;50.620;7.232;2024-03-06T06:49:55;5.50;37.50
20174;DHT22;10246;50.620;7.232;2024-03-06T06:52:22;5.40;37.70
20174;DHT22;10246;50.620;7.232;2024-03-06T06:54:48;5.50;37.80
20174;DHT22;10246;50.620;7.232;2024-03-06T06:57:18;5.40;37.70
20174;DHT22;10246;50.620;7.232;2024-03-06T06:59:45;5.50;37.90
20174;DHT22;10246;50.620;7.232;2024-03-06T07:02:12;5.40;37.90
20174;DHT22;10246;50.620;7.232;2024-03-06T07:04:39;5.40;37.70
20174;DHT22;10246;50.620;7.232;2024-03-06T07:07:05;5.40;37.70
20174;DHT22;10246;50.620;7.232;2024-03-06T07:09:32;5.40;37.70
20174;DHT22;10246;50.620;7.232;2024-03-06T07:11:59;5.40;37.80
20174;DHT22;10246;50.620;7.232;2024-03-06T07:14:27;5.40;37.70
20174;DHT22;10246;50.620;7.232;2024-03-06T07:16:54;5.40;38.10
20174;DHT22;10246;50.620;7.232;2024-03-06T07:19:21;5.40;38.40
20174;DHT22;10246;50.620;7.232;2024-03-06T07:21:47;5.40;38.40
20174;DHT22;10246;50.620;7.232;2024-03-06T07:24:14;5.40;38.70
20174;DHT22;10246;50.620;7.232;2024-03-06T07:26:41;5.40;37.70
20174;DHT22;10246;50.620;7.232;2024-03-06T07:29:08;5.40;37.70
20174;DHT22;10246;50.620;7.232;2024-03-06T07:31:41;5.40;38.60
20174;DHT22;10246;50.620;7.232;2024-03-06T07:34:08;5.50;37.80
20174;DHT22;10246;50.620;7.232;2024-03-06T07:36:35;5.50;37.70
20174;DHT22;10246;50.620;7.232;2024-03-06T07:39:02;5.50;37.70
20174;DHT22;10246;50.620;7.232;2024-03-06T07:41:29;5.50;37.70
20174;DHT22;10246;50.620;7.232;2024-03-06T07:43:56;5.50;37.80
20174;DHT22;10246;50.620;7.232;2024-03-06T07:46:23;5.50;37.70
20174;DHT22;10246;50.620;7.232;2024-03-06T07:48:52;5.60;37.80
20174;DHT22;10246;50.620;7.232;2024-03-06T07:51:18;5.60;37.80
20174;DHT22;10246;50.620;7.232;2024-03-06T07:53:45;5.80;38.00
20174;DHT22;10246;50.620;7.232;2024-03-06T07:56:12;5.70;36.40
20174;DHT22;10246;50.620;7.232;2024-03-06T07:58:40;5.70;36.00
20174;DHT22;10246;50.620;7.232;2024-03-06T08:01:06;5.70;35.90
20174;DHT22;10246;50.620;7.232;2024-03-06T08:03:33;5.70;35.70
20174;DHT22;10246;50.620;7.232;2024-03-06T08:06:01;5.70;35.60
20174;DHT22;10246;50.620;7.232;2024-03-06T08:08:29;5.70;35.40
20174;DHT22;10246;50.620;7.232;2024-03-06T08:10:56;5.80;36.30
20174;DHT22;10246;50.620;7.232;2024-03-06T08:13:22;5.70;36.20
20174;DHT22;10246;50.620;7.232;2024-03-06T08:15:49;5.70;35.50
20174;DHT22;10246;50.620;7.232;2024-03-06T08:18:16;5.70;36.00
20174;DHT22;10246;50.620;7.232;2024-03-06T08:20:43;5.60;36.10
20174;DHT22;10246;50.620;7.232;2024-03-06T08:23:11;5.70;36.60
20174;DHT22;10246;50.620;7.232;2024-03-06T08:25:38;5.80;37.60
20174;DHT22;10246;50.620;7.232;2024-03-06T08:28:05;5.80;37.70
20174;DHT22;10246;50.620;7.232;2024-03-06T08:30:32;5.90;36.80
20174;DHT22;10246;50.620;7.232;2024-03-06T08:32:59;5.90;36.20
20174;DHT22;10246;50.620;7.232;2024-03-06T08:35:26;5.90;36.50
20174;DHT22;10246;50.620;7.232;2024-03-06T08:37:52;5.90;36.60
20174;DHT22;10246;50.620;7.232;2024-03-06T08:40:21;6.00;36.70
20174;DHT22;10246;50.620;7.232;2024-03-06T08:42:48;6.00;36.50
20174;DHT22;10246;50.620;7.232;2024-03-06T08:45:15;6.00;37.40
20174;DHT22;10246;50.620;7.232;2024-03-06T08:47:42;6.10;36.10
20174;DHT22;10246;50.620;7.232;2024-03-06T08:50:10;6.10;35.80
20174;DHT22;10246;50.620;7.232;2024-03-06T08:52:37;6.00;35.90
20174;DHT22;10246;50.620;7.232;2024-03-06T08:55:05;6.10;35.90
20174;DHT22;10246;50.620;7.232;2024-03-06T08:57:33;6.10;36.10
20174;DHT22;10246;50.620;7.232;2024-03-06T09:00:00;6.10;36.60
20174;DHT22;10246;50.620;7.232;2024-03-06T09:02:27;6.10;36.80
20174;DHT22;10246;50.620;7.232;2024-03-06T09:04:55;6.20;36.70
20174;DHT22;10246;50.620;7.232;2024-03-06T09:07:21;6.20;36.50
20174;DHT22;10246;50.620;7.232;2024-03-06T09:09:49;6.30;36.50
20174;DHT22;10246;50.620;7.232;2024-03-06T09:12:17;6.30;36.20
20174;DHT22;10246;50.620;7.232;2024-03-06T09:14:45;6.30;36.10
20174;DHT22;10246;50.620;7.232;2024-03-06T09:17:12;6.40;36.10
20174;DHT22;10246;50.620;7.232;2024-03-06T09:19:40;6.40;35.80
20174;DHT22;10246;50.620;7.232;2024-03-06T09:22:07;6.50;36.40
20174;DHT22;10246;50.620;7.232;2024-03-06T09:24:34;6.60;36.40
20174;DHT22;10246;50.620;7.232;2024-03-06T09:27:03;6.80;35.90
20174;DHT22;10246;50.620;7.232;2024-03-06T09:29:30;6.80;34.80
20174;DHT22;10246;50.620;7.232;2024-03-06T09:31:58;6.90;34.80
20174;DHT22;10246;50.620;7.232;2024-03-06T09:34:26;6.90;34.10
20174;DHT22;10246;50.620;7.232;2024-03-06T09:36:53;7.00;34.10
20174;DHT22;10246;50.620;7.232;2024-03-06T09:39:20;7.20;33.20
20174;DHT22;10246;50.620;7.232;2024-03-06T09:41:49;7.30;31.80
20174;DHT22;10246;50.620;7.232;2024-03-06T09:44:16;7.30;31.80
20174;DHT22;10246;50.620;7.232;2024-03-06T09:46:44;7.50;30.60
20174;DHT22;10246;50.620;7.232;2024-03-06T09:49:14;7.60;30.20
20174;DHT22;10246;50.620;7.232;2024-03-06T09:51:42;7.70;28.70
20174;DHT22;10246;50.620;7.232;2024-03-06T09:54:11;7.90;28.90
20174;DHT22;10246;50.620;7.232;2024-03-06T09:56:41;8.10;27.70
20174;DHT22;10246;50.620;7.232;2024-03-06T09:59:07;8.40;25.80
20174;DHT22;10246;50.620;7.232;2024-03-06T10:01:36;8.50;24.50
20174;DHT22;10246;50.620;7.232;2024-03-06T10:04:19;8.70;23.20
20174;DHT22;10246;50.620;7.232;2024-03-06T10:06:46;8.90;21.30
20174;DHT22;10246;50.620;7.232;2024-03-06T10:09:17;9.00;19.50
20174;DHT22;10246;50.620;7.232;2024-03-06T10:11:43;9.00;19.80
20174;DHT22;10246;50.620;7.232;2024-03-06T10:14:10;9.20;18.40
20174;DHT22;10246;50.620;7.232;2024-03-06T10:16:37;9.30;17.60
20174;DHT22;10246;50.620;7.232;2024-03-06T10:19:18;9.50;16.40
20174;DHT22;10246;50.620;7.232;2024-03-06T10:21:47;9.60;14.20
20174;DHT22;10246;50.620;7.232;2024-03-06T10:24:20;9.80;12.90
20174;DHT22;10246;50.620;7.232;2024-03-06T10:26:49;10.00;8.50
20174;DHT22;10246;50.620;7.232;2024-03-06T10:29:16;10.00;7.70
20174;DHT22;10246;50.620;7.232;2024-03-06T10:31:48;10.20;4.60
20174;DHT22;10246;50.620;7.232;2024-03-06T10:34:17;10.30;5.10
20174;DHT22;10246;50.620;7.232;2024-03-06T10:36:45;10.40;1.60
20174;DHT22;10246;50.620;7.232;2024-03-06T10:39:12;10.60;1.40
20174;DHT22;10246;50.620;7.232;2024-03-06T10:41:40;10.70;1.50
20174;DHT22;10246;50.620;7.232;2024-03-06T10:44:11;10.80;1.00
20174;DHT22;10246;50.620;7.232;2024-03-06T10:46:41;10.90;1.00
20174;DHT22;10246;50.620;7.232;2024-03-06T10:49:10;11.10;1.00
20174;DHT22;10246;50.620;7.232;2024-03-06T10:51:40;11.30;1.00
20174;DHT22;10246;50.620;7.232;2024-03-06T10:54:09;11.40;1.00
20174;DHT22;10246;50.620;7.232;2024-03-06T10:56:38;11.50;1.00
20174;DHT22;10246;50.620;7.232;2024-03-06T10:59:08;11.60;1.00
20174;DHT22;10246;50.620;7.232;2024-03-06T11:01:36;11.90;1.00
20174;DHT22;10246;50.620;7.232;2024-03-06T11:04:03;12.00;1.00
20174;DHT22;10246;50.620;7.232;2024-03-06T11:06:31;12.10;1.00
20174;DHT22;10246;50.620;7.232;2024-03-06T11:09:00;12.20;1.00
20174;DHT22;10246;50.620;7.232;2024-03-06T11:11:27;12.30;1.00
20174;DHT22;10246;50.620;7.232;2024-03-06T11:14:00;12.40;1.00
20174;DHT22;10246;50.620;7.232;2024-03-06T11:16:28;12.50;1.00
20174;DHT22;10246;50.620;7.232;2024-03-06T11:19:05;12.60;1.00
20174;DHT22;10246;50.620;7.232;2024-03-06T11:21:32;12.70;1.00
20174;DHT22;10246;50.620;7.232;2024-03-06T11:24:19;12.80;1.00
20174;DHT22;10246;50.620;7.232;2024-03-06T11:26:52;12.90;1.00
20174;DHT22;10246;50.620;7.232;2024-03-06T11:29:21;12.80;1.00
20174;DHT22;10246;50.620;7.232;2024-03-06T11:32:06;13.00;1.00
20174;DHT22;10246;50.620;7.232;2024-03-06T11:34:37;13.20;1.00
20174;DHT22;10246;50.620;7.232;2024-03-06T11:37:05;13.30;1.00
20174;DHT22;10246;50.620;7.232;2024-03-06T11:39:38;13.30;1.00
20174;DHT22;10246;50.620;7.232;2024-03-06T11:42:06;13.10;1.00
20174;DHT22;10246;50.620;7.232;2024-03-06T11:44:35;12.80;1.00
20174;DHT22;10246;50.620;7.232;2024-03-06T11:47:03;12.80;1.00
20174;DHT22;10246;50.620;7.232;2024-03-06T11:49:31;12.90;1.00
20174;DHT22;10246;50.620;7.232;2024-03-06T11:52:00;13.00;1.00
20174;DHT22;10246;50.620;7.232;2024-03-06T11:54:28;13.10;1.00
20174;DHT22;10246;50.620;7.232;2024-03-06T11:56:58;13.30;1.00
20174;DHT22;10246;50.620;7.232;2024-03-06T11:59:25;13.50;1.00
20174;DHT22;10246;50.620;7.232;2024-03-06T12:01:52;13.60;1.00
20174;DHT22;10246;50.620;7.232;2024-03-06T12:04:19;14.00;1.00
20174;DHT22;10246;50.620;7.232;2024-03-06T12:06:47;14.10;1.00
20174;DHT22;10246;50.620;7.232;2024-03-06T12:09:15;14.00;1.00
20174;DHT22;10246;50.620;7.232;2024-03-06T12:11:42;13.90;1.00
20174;DHT22;10246;50.620;7.232;2024-03-06T12:14:14;13.90;1.00
20174;DHT22;10246;50.620;7.232;2024-03-06T12:16:43;13.90;1.00
20174;DHT22;10246;50.620;7.232;2024-03-06T12:19:10;13.90;1.00
20174;DHT22;10246;50.620;7.232;2024-03-06T12:21:39;14.00;1.00
20174;DHT22;10246;50.620;7.232;2024-03-06T12:24:07;14.00;1.00
20174;DHT22;10246;50.620;7.232;2024-03-06T12:26:34;13.90;1.00
20174;DHT22;10246;50.620;7.232;2024-03-06T12:29:04;13.80;1.00
20174;DHT22;10246;50.620;7.232;2024-03-06T12:31:35;13.80;1.00
20174;DHT22;10246;50.620;7.232;2024-03-06T12:34:02;13.60;1.00
20174;DHT22;10246;50.620;7.232;2024-03-06T12:36:29;13.40;1.00
20174;DHT22;10246;50.620;7.232;2024-03-06T12:38:57;13.30;1.00
20174;DHT22;10246;50.620;7.232;2024-03-06T12:41:25;13.20;1.00
20174;DHT22;10246;50.620;7.232;2024-03-06T12:43:53;13.20;1.00
20174;DHT22;10246;50.620;7.232;2024-03-06T12:46:20;13.30;1.00
20174;DHT22;10246;50.620;7.232;2024-03-06T12:48:49;13.30;1.00
20174;DHT22;10246;50.620;7.232;2024-03-06T12:51:15;13.30;1.00
20174;DHT22;10246;50.620;7.232;2024-03-06T12:53:42;13.20;1.00
20174;DHT22;10246;50.620;7.232;2024-03-06T12:56:09;13.10;1.00
20174;DHT22;10246;50.620;7.232;2024-03-06T12:58:36;13.20;1.00
20174;DHT22;10246;50.620;7.232;2024-03-06T13:01:03;13.20;1.00
20174;DHT22;10246;50.620;7.232;2024-03-06T13:03:30;13.10;1.00
20174;DHT22;10246;50.620;7.232;2024-03-06T13:05:59;13.10;1.00
20174;DHT22;10246;50.620;7.232;2024-03-06T13:08:26;13.10;1.00
20174;DHT22;10246;50.620;7.232;2024-03-06T13:10:53;13.00;1.00
20174;DHT22;10246;50.620;7.232;2024-03-06T13:13:20;13.00;1.00
20174;DHT22;10246;50.620;7.232;2024-03-06T13:15:49;13.00;1.00
20174;DHT22;10246;50.620;7.232;2024-03-06T13:18:16;13.00;1.00
20174;DHT22;10246;50.620;7.232;2024-03-06T13:20:43;13.10;1.00
20174;DHT22;10246;50.620;7.232;2024-03-06T13:23:12;13.00;1.00
20174;DHT22;10246;50.620;7.232;2024-03-06T13:25:38;13.10;1.00
20174;DHT22;10246;50.620;7.232;2024-03-06T13:28:05;13.30;1.00
20174;DHT22;10246;50.620;7.232;2024-03-06T13:30:32;13.50;1.00
20174;DHT22;10246;50.620;7.232;2024-03-06T13:32:59;13.80;1.00
20174;DHT22;10246;50.620;7.232;2024-03-06T13:35:27;14.10;1.00
20174;DHT22;10246;50.620;7.232;2024-03-06T13:37:54;14.20;1.00
20174;DHT22;10246;50.620;7.232;2024-03-06T13:40:22;14.30;1.00
20174;DHT22;10246;50.620;7.232;2024-03-06T13:42:51;14.20;1.00
20174;DHT22;10246;50.620;7.232;2024-03-06T13:45:18;14.20;1.00
20174;DHT22;10246;50.620;7.232;2024-03-06T13:47:44;14.10;1.00
20174;DHT22;10246;50.620;7.232;2024-03-06T13:50:12;14.30;1.00
20174;DHT22;10246;50.620;7.232;2024-03-06T13:52:39;14.40;1.00
20174;DHT22;10246;50.620;7.232;2024-03-06T13:55:07;14.30;1.00
20174;DHT22;10246;50.620;7.232;2024-03-06T13:57:37;14.50;1.00
20174;DHT22;10246;50.620;7.232;2024-03-06T14:00:05;14.80;1.00
20174;DHT22;10246;50.620;7.232;2024-03-06T14:02:37;14.90;1.00
20174;DHT22;10246;50.620;7.232;2024-03-06T14:05:05;15.10;1.00
20174;DHT22;10246;50.620;7.232;2024-03-06T14:07:31;14.90;1.00
20174;DHT22;10246;50.620;7.232;2024-03-06T14:09:59;14.90;1.00
20174;DHT22;10246;50.620;7.232;2024-03-06T14:12:26;15.00;1.00
20174;DHT22;10246;50.620;7.232;2024-03-06T14:14:54;14.90;1.00
20174;DHT22;10246;50.620;7.232;2024-03-06T14:17:20;14.70;1.00
20174;DHT22;10246;50.620;7.232;2024-03-06T14:19:47;14.50;1.00
20174;DHT22;10246;50.620;7.232;2024-03-06T14:22:14;14.20;1.00
20174;DHT22;10246;50.620;7.232;2024-03-06T14:24:42;14.30;1.00
20174;DHT22;10246;50.620;7.232;2024-03-06T14:27:09;14.20;1.00
20174;DHT22;10246;50.620;7.232;2024-03-06T14:29:36;14.20;1.00
20174;DHT22;10246;50.620;7.232;2024-03-06T14:32:05;14.10;1.00
20174;DHT22;10246;50.620;7.232;2024-03-06T14:34:32;14.10;1.00
20174;DHT22;10246;50.620;7.232;2024-03-06T14:36:58;14.10;1.00
20174;DHT22;10246;50.620;7.232;2024-03-06T14:39:26;14.20;1.00
20174;DHT22;10246;50.620;7.232;2024-03-06T14:41:52;14.10;1.00
20174;DHT22;10246;50.620;7.232;2024-03-06T14:44:19;14.00;1.00
20174;DHT22;10246;50.620;7.232;2024-03-06T14:46:46;14.00;1.00
20174;DHT22;10246;50.620;7.232;2024-03-06T14:49:14;13.90;1.00
20174;DHT22;10246;50.620;7.232;2024-03-06T14:51:42;13.80;1.00
20174;DHT22;10246;50.620;7.232;2024-03-06T14:54:09;13.80;1.00
20174;DHT22;10246;50.620;7.232;2024-03-06T14:56:36;13.80;1.00
20174;DHT22;10246;50.620;7.232;2024-03-06T14:59:02;13.90;1.00
20174;DHT22;10246;50.620;7.232;2024-03-06T15:01:29;13.90;1.00
20174;DHT22;10246;50.620;7.232;2024-03-06T15:03:57;13.90;1.00
20174;DHT22;10246;50.620;7.232;2024-03-06T15:06:26;13.90;1.00
20174;DHT22;10246;50.620;7.232;2024-03-06T15:08:52;13.90;1.00
20174;DHT22;10246;50.620;7.232;2024-03-06T15:11:19;13.80;1.00
20174;DHT22;10246;50.620;7.232;2024-03-06T15:13:47;13.90;1.00
20174;DHT22;10246;50.620;7.232;2024-03-06T15:16:14;13.90;1.00
20174;DHT22;10246;50.620;7.232;2024-03-06T15:18:41;13.90;1.00
20174;DHT22;10246;50.620;7.232;2024-03-06T15:21:09;13.80;1.00
20174;DHT22;10246;50.620;7.232;2024-03-06T15:23:38;13.80;1.00
20174;DHT22;10246;50.620;7.232;2024-03-06T15:26:05;13.80;1.00
20174;DHT22;10246;50.620;7.232;2024-03-06T15:28:31;13.90;1.00
20174;DHT22;10246;50.620;7.232;2024-03-06T15:30:58;13.90;1.00
20174;DHT22;10246;50.620;7.232;2024-03-06T15:33:29;14.00;1.00
20174;DHT22;10246;50.620;7.232;2024-03-06T15:35:56;14.10;1.00
20174;DHT22;10246;50.620;7.232;2024-03-06T15:38:24;14.10;1.00
20174;DHT22;10246;50.620;7.232;2024-03-06T15:40:52;14.00;1.00
20174;DHT22;10246;50.620;7.232;2024-03-06T15:43:19;14.00;1.00
20174;DHT22;10246;50.620;7.232;2024-03-06T15:45:46;13.90;1.00
20174;DHT22;10246;50.620;7.232;2024-03-06T15:48:12;13.80;1.00